Time;durP1;ratioP1;P1;durP2;ratioP2;P2;SDS_P1;SDS_P2;PMS_P1;PMS_P2;Temp;Humidity;BMP_temperature;BMP_pressure;BME280_temperature;BME280_humidity;BME280_pressure;Samples;Min_cycle;Max_cycle;Signal;HPM_P1;HPM_P2
2022/01/21 00:00:49;;;;;;;20.65;11.90;;;6.60;96.70;;;;;;5069068;28;20071;-81
2022/01/21 00:03:17;;;;;;;22.98;11.82;;;6.50;96.70;;;;;;5084762;28;20507;-80
2022/01/21 00:05:47;;;;;;;25.77;12.80;;;6.60;96.70;;;;;;5082288;28;20048;-81
2022/01/21 00:08:16;;;;;;;16.30;12.27;;;6.60;96.70;;;;;;5069399;28;20416;-81
2022/01/21 00:10:44;;;;;;;21.10;14.40;;;6.60;96.70;;;;;;5075091;28;20081;-81
2022/01/21 00:13:33;;;;;;;18.52;12.93;;;6.70;96.70;;;;;;5081170;28;20044;-81
2022/01/21 00:16:03;;;;;;;21.13;14.95;;;6.70;96.70;;;;;;5085245;28;20045;-81
2022/01/21 00:18:31;;;;;;;37.50;14.65;;;6.80;96.70;;;;;;5077661;28;20048;-81
2022/01/21 00:32:12;;;;;;;39.50;13.23;;;6.70;96.70;;;;;;5078523;28;20070;-81
2022/01/21 00:34:43;;;;;;;27.63;13.65;;;6.60;96.70;;;;;;5072453;28;20510;-81
2022/01/21 00:37:13;;;;;;;28.08;12.80;;;6.50;96.70;;;;;;5073329;28;20052;-82
2022/01/21 00:39:44;;;;;;;29.63;12.15;;;6.30;96.70;;;;;;5058412;28;20139;-81
2022/01/21 00:44:52;;;;;;;23.15;11.35;;;6.40;96.70;;;;;;5070286;28;20119;-81
2022/01/21 00:47:21;;;;;;;19.80;11.77;;;6.40;96.70;;;;;;5060363;28;20502;-81
2022/01/21 00:49:49;;;;;;;15.40;11.18;;;6.40;96.70;;;;;;5079539;28;20044;-81
2022/01/21 00:52:19;;;;;;;16.70;11.15;;;6.30;96.70;;;;;;5078942;28;20070;-81
2022/01/21 00:54:47;;;;;;;14.82;10.90;;;6.20;96.70;;;;;;5072580;28;20156;-81
2022/01/21 00:57:15;;;;;;;19.80;10.57;;;6.30;96.70;;;;;;5074616;28;20040;-80
2022/01/21 00:59:43;;;;;;;20.50;10.27;;;6.20;96.70;;;;;;5065891;28;20063;-80
2022/01/21 01:02:11;;;;;;;33.28;10.50;;;6.10;96.70;;;;;;5086485;28;20511;-80
2022/01/21 01:04:40;;;;;;;29.75;9.75;;;6.20;96.70;;;;;;5087884;28;20106;-81
2022/01/21 01:07:08;;;;;;;13.60;9.13;;;6.10;96.70;;;;;;5070491;28;20048;-84
2022/01/21 01:09:38;;;;;;;20.15;10.30;;;6.20;96.70;;;;;;5073976;28;20042;-83
2022/01/21 01:20:13;;;;;;;19.52;8.30;;;6.00;96.70;;;;;;5076782;28;20059;-83
2022/01/21 01:28:00;;;;;;;15.55;8.70;;;6.20;96.70;;;;;;5077654;28;20050;-82
2022/01/21 01:30:31;;;;;;;16.02;8.48;;;6.20;96.70;;;;;;5077418;28;20040;-83
2022/01/21 01:33:02;;;;;;;16.25;9.63;;;6.10;96.70;;;;;;5080446;28;20071;-83
2022/01/21 01:35:33;;;;;;;18.17;8.48;;;6.10;96.70;;;;;;5075705;28;20055;-82
2022/01/21 01:38:40;;;;;;;15.18;8.63;;;6.20;96.70;;;;;;5070259;28;20040;-82
2022/01/21 01:41:13;;;;;;;13.43;8.77;;;6.10;96.70;;;;;;5062717;28;20066;-83
2022/01/21 01:49:30;;;;;;;15.02;9.88;;;6.20;96.70;;;;;;5069858;28;20119;-83
2022/01/21 01:52:00;;;;;;;14.20;8.88;;;6.30;96.70;;;;;;5080461;28;20234;-82
2022/01/21 01:54:30;;;;;;;15.55;8.55;;;6.20;96.70;;;;;;5074117;28;20473;-82
2022/01/21 01:57:00;;;;;;;13.30;9.25;;;6.20;96.70;;;;;;5068071;28;20052;-82
2022/01/21 01:59:28;;;;;;;19.00;9.85;;;6.00;96.70;;;;;;5073928;28;20653;-82
2022/01/21 02:01:58;;;;;;;16.60;9.35;;;6.00;96.70;;;;;;5075494;28;20069;-82
2022/01/21 02:04:27;;;;;;;13.15;10.38;;;6.00;96.70;;;;;;5070766;28;20040;-83
2022/01/21 02:06:55;;;;;;;18.17;10.82;;;6.00;96.70;;;;;;5077264;28;20577;-83
2022/01/21 02:09:27;;;;;;;18.83;11.52;;;6.10;96.70;;;;;;5061304;28;20072;-82
2022/01/21 02:11:56;;;;;;;22.98;10.77;;;6.00;96.70;;;;;;5071801;28;20115;-84
2022/01/21 02:14:36;;;;;;;15.07;10.30;;;6.00;96.70;;;;;;5069985;28;20584;-80
2022/01/21 02:22:33;;;;;;;12.32;8.60;;;5.90;96.70;;;;;;5074436;28;20048;-81
2022/01/21 02:25:15;;;;;;;10.48;8.45;;;5.80;96.70;;;;;;5074706;28;20048;-81
2022/01/21 02:27:46;;;;;;;9.75;7.28;;;5.70;96.70;;;;;;5074762;28;20544;-81
2022/01/21 02:30:18;;;;;;;9.00;6.60;;;5.50;96.70;;;;;;5073289;28;20056;-80
2022/01/21 02:32:51;;;;;;;8.25;6.85;;;5.40;96.70;;;;;;5029844;28;20041;-81
2022/01/21 02:35:20;;;;;;;10.93;6.35;;;5.40;96.70;;;;;;5029571;28;20047;-81
2022/01/21 02:37:50;;;;;;;9.55;6.97;;;5.30;96.70;;;;;;5026486;28;20045;-81
2022/01/21 02:40:19;;;;;;;7.15;5.43;;;5.30;96.70;;;;;;5011812;28;20161;-80
2022/01/21 02:42:47;;;;;;;11.55;5.18;;;5.40;96.70;;;;;;5024999;28;20128;-81
2022/01/21 02:45:15;;;;;;;7.28;5.00;;;5.40;96.70;;;;;;5024841;28;20572;-81
2022/01/21 02:47:45;;;;;;;7.00;4.85;;;5.50;96.70;;;;;;5012896;28;20481;-81
2022/01/21 02:50:15;;;;;;;12.90;4.70;;;5.50;96.70;;;;;;5040368;28;20041;-80
2022/01/21 02:52:56;;;;;;;13.38;5.00;;;5.50;96.70;;;;;;5031798;28;20045;-81
2022/01/21 02:55:26;;;;;;;10.90;4.70;;;5.50;96.70;;;;;;5036370;28;20056;-81
2022/01/21 02:57:54;;;;;;;16.70;5.80;;;5.40;96.70;;;;;;5025489;28;20042;-78
2022/01/21 03:00:23;;;;;;;9.48;5.50;;;5.50;96.70;;;;;;5039079;28;20954;-78
2022/01/21 03:02:51;;;;;;;22.75;6.40;;;5.40;96.70;;;;;;5029615;28;20041;-78
2022/01/21 03:05:20;;;;;;;6.40;5.10;;;5.40;96.70;;;;;;5031070;28;20053;-78
2022/01/21 03:07:50;;;;;;;11.18;4.78;;;5.40;96.70;;;;;;5025528;28;20040;-78
2022/01/21 03:10:20;;;;;;;11.27;5.38;;;5.30;96.70;;;;;;5035676;28;20033;-78
2022/01/21 03:12:49;;;;;;;11.88;5.53;;;5.30;96.70;;;;;;5039259;28;20499;-78
2022/01/21 03:15:17;;;;;;;7.15;4.88;;;5.30;96.70;;;;;;5032447;28;20054;-77
2022/01/21 03:17:45;;;;;;;8.02;5.68;;;5.30;96.70;;;;;;5033686;28;20279;-78
2022/01/21 03:20:14;;;;;;;8.85;5.15;;;5.20;96.70;;;;;;5032398;28;20487;-78
2022/01/21 03:22:42;;;;;;;6.80;4.78;;;5.30;96.70;;;;;;5020108;28;20069;-81
2022/01/21 03:25:10;;;;;;;7.32;4.85;;;5.20;96.70;;;;;;5021936;28;20073;-81
2022/01/21 03:27:39;;;;;;;6.72;4.93;;;5.30;96.70;;;;;;5041272;28;20608;-81
2022/01/21 03:30:11;;;;;;;6.80;4.40;;;5.30;96.70;;;;;;5033245;28;20374;-81
2022/01/21 03:32:45;;;;;;;10.65;4.85;;;5.30;96.70;;;;;;5059857;28;20523;-81
2022/01/21 03:35:13;;;;;;;8.77;5.00;;;5.20;96.70;;;;;;5075517;28;20139;-81
2022/01/21 03:37:42;;;;;;;13.43;5.10;;;5.30;96.70;;;;;;5067059;28;20040;-81
2022/01/21 03:40:11;;;;;;;8.13;4.57;;;5.30;96.70;;;;;;5078931;28;20135;-81
2022/01/21 03:42:44;;;;;;;7.55;4.50;;;5.30;96.70;;;;;;5077149;28;20036;-80
2022/01/21 03:45:14;;;;;;;11.35;4.57;;;5.40;96.70;;;;;;5076447;28;20044;-81
2022/01/21 03:47:43;;;;;;;9.48;4.25;;;5.40;96.70;;;;;;5077584;28;20742;-81
2022/01/21 03:50:31;;;;;;;11.73;4.72;;;5.40;96.70;;;;;;5067399;28;20523;-80
2022/01/21 03:53:01;;;;;;;14.80;4.47;;;5.30;96.70;;;;;;5078356;28;20147;-81
2022/01/21 03:55:31;;;;;;;8.98;4.50;;;5.30;96.70;;;;;;5062971;28;20336;-81
2022/01/21 03:58:00;;;;;;;6.75;4.43;;;5.40;96.70;;;;;;5072642;28;20040;-81
2022/01/21 04:00:32;;;;;;;7.22;4.70;;;5.40;96.70;;;;;;5072278;28;20078;-82
2022/01/21 04:03:03;;;;;;;6.78;3.72;;;5.40;96.70;;;;;;5062476;28;20072;-81
2022/01/21 04:05:32;;;;;;;7.78;3.83;;;5.30;96.70;;;;;;5061879;28;20053;-81
2022/01/21 04:08:01;;;;;;;6.25;3.50;;;5.20;96.70;;;;;;5071006;28;20059;-81
2022/01/21 04:10:29;;;;;;;5.40;3.15;;;5.30;96.70;;;;;;5073674;28;20040;-81
2022/01/21 04:12:58;;;;;;;5.45;3.45;;;5.30;96.70;;;;;;5079845;28;20041;-81
2022/01/21 04:15:26;;;;;;;3.85;3.00;;;5.30;96.70;;;;;;5077161;28;20054;-80
2022/01/21 04:17:56;;;;;;;4.20;3.05;;;5.40;96.70;;;;;;5062619;28;20123;-81
2022/01/21 04:20:25;;;;;;;4.47;2.97;;;5.40;96.70;;;;;;5076516;28;20052;-81
2022/01/21 04:22:53;;;;;;;3.97;2.83;;;5.40;96.70;;;;;;5071533;28;20044;-81
2022/01/21 04:25:21;;;;;;;5.70;3.38;;;5.30;96.70;;;;;;5068991;28;20044;-81
2022/01/21 04:27:50;;;;;;;5.13;3.33;;;5.40;96.70;;;;;;5072479;28;20214;-81
2022/01/21 04:30:18;;;;;;;7.00;3.33;;;5.40;96.70;;;;;;5079277;28;20044;-80
2022/01/21 04:32:46;;;;;;;5.90;3.95;;;5.40;96.70;;;;;;5066932;28;20488;-80
2022/01/21 04:35:25;;;;;;;7.40;4.43;;;5.30;96.70;;;;;;5066864;28;20055;-81
2022/01/21 04:38:00;;;;;;;13.48;4.70;;;5.40;96.70;;;;;;5081634;28;20139;-80
2022/01/21 04:40:32;;;;;;;11.55;5.03;;;5.50;96.70;;;;;;5078991;28;20081;-81
2022/01/21 04:48:39;;;;;;;35.38;6.30;;;5.30;96.70;;;;;;5088273;28;20579;-81
2022/01/21 04:51:15;;;;;;;31.88;6.25;;;5.40;96.70;;;;;;5077232;28;20051;-80
2022/01/21 04:53:46;;;;;;;32.85;6.53;;;5.30;96.70;;;;;;5073590;28;20166;-81
2022/01/21 04:56:27;;;;;;;21.20;5.18;;;5.30;96.70;;;;;;5078434;28;20546;-80
2022/01/21 04:58:56;;;;;;;32.00;5.63;;;5.30;96.70;;;;;;5080135;28;20410;-80
2022/01/21 05:01:29;;;;;;;18.98;5.68;;;5.20;96.70;;;;;;5053935;28;20403;-80
2022/01/21 05:03:59;;;;;;;17.83;5.00;;;5.30;96.70;;;;;;5068193;28;20045;-81
2022/01/21 05:06:28;;;;;;;24.98;5.55;;;5.40;96.70;;;;;;5072201;28;20060;-80
2022/01/21 05:08:57;;;;;;;18.58;5.03;;;5.40;96.70;;;;;;5071042;28;20050;-81
2022/01/21 05:11:26;;;;;;;15.32;5.10;;;5.40;96.70;;;;;;5074569;28;20044;-81
2022/01/21 05:14:10;;;;;;;15.20;3.95;;;5.40;96.70;;;;;;5076708;28;20526;-80
2022/01/21 05:16:47;;;;;;;26.35;4.50;;;5.30;96.70;;;;;;5066074;28;20626;-81
2022/01/21 05:19:17;;;;;;;9.85;3.97;;;5.20;96.70;;;;;;5075668;28;20514;-81
2022/01/21 05:22:16;;;;;;;19.67;4.45;;;5.30;96.70;;;;;;5052144;28;20879;-81
2022/01/21 05:24:49;;;;;;;14.68;4.50;;;5.40;96.70;;;;;;5074773;28;20393;-81
2022/01/21 05:27:17;;;;;;;14.70;4.15;;;5.40;96.70;;;;;;5080285;28;20058;-81
2022/01/21 05:29:50;;;;;;;11.43;4.07;;;5.30;96.70;;;;;;5063559;28;20044;-81
2022/01/21 05:32:32;;;;;;;14.25;3.92;;;5.30;96.70;;;;;;5074965;28;20059;-81
2022/01/21 05:35:00;;;;;;;11.88;4.10;;;5.30;96.70;;;;;;5081235;28;20509;-81
2022/01/21 05:37:41;;;;;;;10.77;3.92;;;5.20;96.70;;;;;;5072080;28;20043;-81
2022/01/21 05:40:38;;;;;;;10.82;4.13;;;5.30;96.70;;;;;;5066969;28;20051;-81
2022/01/21 05:43:33;;;;;;;10.13;3.70;;;5.20;96.70;;;;;;5036187;28;20057;-81
2022/01/21 05:49:28;;;;;;;9.80;3.78;;;5.10;96.70;;;;;;5033930;28;20196;-80
2022/01/21 05:52:31;;;;;;;8.88;4.38;;;5.10;96.70;;;;;;4958532;28;20576;-80
2022/01/21 05:55:01;;;;;;;11.77;4.40;;;5.00;96.70;;;;;;4958417;28;20106;-80
2022/01/21 05:57:41;;;;;;;9.20;4.40;;;5.00;96.70;;;;;;4942427;28;20299;-80
2022/01/21 06:00:11;;;;;;;6.40;4.10;;;5.10;96.70;;;;;;4959136;28;20069;-80
2022/01/21 06:02:46;;;;;;;8.35;4.45;;;5.10;96.70;;;;;;4959119;28;20407;-80
2022/01/21 06:05:15;;;;;;;7.22;4.55;;;5.10;96.70;;;;;;4959251;28;20074;-79
2022/01/21 06:07:42;;;;;;;6.35;4.70;;;5.20;96.70;;;;;;4954520;28;20552;-80
2022/01/21 06:10:12;;;;;;;7.97;4.03;;;5.20;96.70;;;;;;4955227;28;20050;-80
2022/01/21 06:12:40;;;;;;;7.15;4.35;;;5.10;96.70;;;;;;4957368;28;20050;-81
2022/01/21 06:15:09;;;;;;;10.05;3.88;;;5.00;96.70;;;;;;4964980;28;20078;-80
2022/01/21 06:17:37;;;;;;;15.50;4.55;;;5.00;96.70;;;;;;4955341;28;20043;-80
2022/01/21 06:20:06;;;;;;;21.10;4.68;;;5.00;96.70;;;;;;4971729;28;20057;-80
2022/01/21 06:22:33;;;;;;;17.83;4.43;;;5.00;96.70;;;;;;4996461;28;20046;-80
2022/01/21 06:25:02;;;;;;;7.38;4.03;;;5.00;96.70;;;;;;5020202;28;20053;-81
2022/01/21 06:27:33;;;;;;;8.80;5.10;;;4.90;96.70;;;;;;5021538;28;20569;-80
2022/01/21 06:30:01;;;;;;;8.43;4.38;;;5.00;96.70;;;;;;5065574;28;20060;-80
2022/01/21 06:32:29;;;;;;;15.63;4.80;;;5.00;96.70;;;;;;5077073;28;20052;-80
2022/01/21 06:34:59;;;;;;;11.07;6.03;;;5.00;96.70;;;;;;5075984;28;20055;-80
2022/01/21 06:37:31;;;;;;;11.25;5.07;;;4.90;96.70;;;;;;5076410;28;20460;-80
2022/01/21 06:39:59;;;;;;;6.63;4.72;;;4.80;96.70;;;;;;5079974;28;20073;-81
2022/01/21 06:42:29;;;;;;;10.82;4.50;;;4.90;96.70;;;;;;5079613;28;20044;-80
2022/01/21 06:45:00;;;;;;;13.50;4.05;;;4.90;96.70;;;;;;5079709;28;20040;-80
2022/01/21 06:47:28;;;;;;;6.60;3.25;;;4.90;96.70;;;;;;5077345;28;20059;-80
2022/01/21 06:49:59;;;;;;;3.92;3.08;;;4.90;96.70;;;;;;5054455;28;20044;-81
2022/01/21 06:52:28;;;;;;;4.50;2.90;;;4.90;96.70;;;;;;5075591;28;20153;-81
2022/01/21 06:54:57;;;;;;;8.15;2.90;;;4.80;96.70;;;;;;5080871;28;20124;-80
2022/01/21 06:57:25;;;;;;;5.03;2.88;;;4.70;96.70;;;;;;5074371;28;20055;-80
2022/01/21 06:59:53;;;;;;;10.43;3.03;;;4.80;96.70;;;;;;5076771;28;20587;-81
2022/01/21 07:02:23;;;;;;;4.70;2.45;;;4.70;96.70;;;;;;5075448;28;20051;-80
2022/01/21 07:04:51;;;;;;;14.68;3.00;;;4.70;96.70;;;;;;5077518;28;20028;-80
2022/01/21 07:07:21;;;;;;;9.18;3.08;;;4.70;96.70;;;;;;5061393;28;20127;-80
2022/01/21 07:09:49;;;;;;;7.65;3.33;;;4.70;96.70;;;;;;5071351;28;20055;-80
2022/01/21 07:12:17;;;;;;;8.75;4.15;;;4.60;96.70;;;;;;5076086;28;20446;-81
2022/01/21 07:14:49;;;;;;;9.38;3.28;;;4.60;96.70;;;;;;5062592;28;20050;-80
2022/01/21 07:17:17;;;;;;;7.07;3.28;;;4.70;96.70;;;;;;5078007;28;20544;-80
2022/01/21 07:19:50;;;;;;;10.40;4.00;;;4.80;96.70;;;;;;5075622;28;20128;-80
2022/01/21 07:22:19;;;;;;;9.18;4.50;;;4.80;96.70;;;;;;5079577;28;20092;-80
2022/01/21 07:24:47;;;;;;;10.85;4.47;;;4.90;96.70;;;;;;5071560;28;20044;-80
2022/01/21 07:27:15;;;;;;;7.22;4.07;;;4.90;96.70;;;;;;5073211;28;20036;-80
2022/01/21 07:29:43;;;;;;;10.18;5.03;;;4.90;96.70;;;;;;5073290;28;20551;-80
2022/01/21 07:32:11;;;;;;;9.05;4.50;;;4.80;96.70;;;;;;5083929;28;20125;-80
2022/01/21 07:34:39;;;;;;;21.65;4.82;;;4.90;96.70;;;;;;5073825;28;20111;-80
2022/01/21 07:37:12;;;;;;;12.18;4.90;;;4.90;96.70;;;;;;5074145;28;20075;-80
2022/01/21 07:39:40;;;;;;;12.50;5.20;;;4.90;96.70;;;;;;5076689;28;20120;-80
2022/01/21 07:42:08;;;;;;;19.10;4.97;;;4.80;96.70;;;;;;5083393;28;20527;-83
2022/01/21 07:44:35;;;;;;;13.80;5.05;;;4.90;96.70;;;;;;5082408;28;20433;-82
2022/01/21 07:47:05;;;;;;;15.30;5.75;;;4.80;96.70;;;;;;5077702;28;20048;-82
2022/01/21 07:49:34;;;;;;;28.52;5.85;;;4.90;96.70;;;;;;5060050;28;20055;-83
2022/01/21 07:52:03;;;;;;;16.30;5.50;;;4.90;96.70;;;;;;5075541;28;20440;-83
2022/01/21 07:54:33;;;;;;;21.60;5.32;;;5.00;96.70;;;;;;5073723;28;20392;-82
2022/01/21 07:57:02;;;;;;;20.45;5.80;;;5.00;96.70;;;;;;5075903;28;20504;-81
2022/01/21 07:59:30;;;;;;;21.85;5.70;;;5.00;96.70;;;;;;5082466;28;20498;-87
2022/01/21 08:01:58;;;;;;;19.38;5.72;;;5.00;96.70;;;;;;5061984;28;20166;-83
2022/01/21 08:04:26;;;;;;;13.90;6.10;;;5.10;96.70;;;;;;5081833;28;20085;-81
2022/01/21 08:06:54;;;;;;;22.20;5.55;;;5.10;96.70;;;;;;5078538;28;20036;-83
2022/01/21 08:09:24;;;;;;;20.48;6.03;;;5.10;96.70;;;;;;5080029;28;20044;-85
2022/01/21 08:11:54;;;;;;;19.73;5.10;;;5.20;96.70;;;;;;5084624;28;20036;-85
2022/01/21 08:14:23;;;;;;;22.88;5.60;;;5.20;96.70;;;;;;5071140;28;20047;-84
2022/01/21 08:16:53;;;;;;;18.52;5.32;;;5.20;96.70;;;;;;5083024;28;20551;-82
2022/01/21 08:19:21;;;;;;;13.38;5.30;;;5.10;96.70;;;;;;5088548;28;20044;-83
2022/01/21 08:21:49;;;;;;;23.08;5.25;;;5.10;96.70;;;;;;5091019;28;20048;-82
2022/01/21 08:28:03;;;;;;;18.25;6.07;;;5.20;96.70;;;;;;4973672;28;19970;-87
2022/01/21 08:30:32;;;;;;;13.63;5.18;;;5.30;96.70;;;;;;4961197;28;20050;-88
2022/01/21 08:33:00;;;;;;;10.88;5.75;;;5.30;96.70;;;;;;4964128;28;20055;-87
2022/01/21 08:35:29;;;;;;;13.45;5.63;;;5.40;96.70;;;;;;4961988;28;20487;-88
2022/01/21 08:37:58;;;;;;;13.02;5.60;;;5.50;96.70;;;;;;4950857;28;20129;-88
2022/01/21 08:40:27;;;;;;;14.93;5.97;;;5.50;96.70;;;;;;4957935;28;20560;-88
2022/01/21 08:42:55;;;;;;;9.82;5.72;;;5.50;96.70;;;;;;4959234;28;20050;-83
2022/01/21 08:45:25;;;;;;;14.77;5.70;;;5.50;96.70;;;;;;4947718;28;20058;-82
2022/01/21 08:47:53;;;;;;;13.55;6.35;;;5.60;96.70;;;;;;4963274;28;20141;-81
2022/01/21 08:50:22;;;;;;;18.17;6.10;;;5.60;96.70;;;;;;4964674;28;20142;-84
2022/01/21 08:52:55;;;;;;;14.50;6.93;;;5.60;96.70;;;;;;4970399;28;20058;-82
2022/01/21 08:55:23;;;;;;;12.95;6.00;;;5.60;96.70;;;;;;4944771;28;20042;-82
2022/01/21 08:57:51;;;;;;;11.73;6.47;;;5.60;96.70;;;;;;4962178;28;20528;-85
2022/01/21 09:00:21;;;;;;;9.18;6.72;;;5.70;96.70;;;;;;4961553;28;20047;-86
2022/01/21 09:02:51;;;;;;;9.18;6.95;;;5.70;96.70;;;;;;4962682;28;20325;-85
2022/01/21 09:05:19;;;;;;;9.88;6.95;;;5.80;96.70;;;;;;4961982;28;20038;-82
2022/01/21 09:07:47;;;;;;;11.55;7.40;;;5.80;96.70;;;;;;4967147;28;20134;-84
2022/01/21 09:10:16;;;;;;;12.00;7.97;;;6.00;96.70;;;;;;4946881;28;20129;-85
2022/01/21 09:12:44;;;;;;;12.48;9.07;;;6.10;96.70;;;;;;4964280;28;20452;-84
2022/01/21 09:15:12;;;;;;;11.20;7.95;;;6.10;96.70;;;;;;4974383;28;20101;-86
2022/01/21 09:17:40;;;;;;;11.07;8.60;;;6.20;96.70;;;;;;4954720;28;20039;-83
2022/01/21 09:20:11;;;;;;;12.00;8.05;;;6.30;96.70;;;;;;4959481;28;20138;-85
2022/01/21 09:22:38;;;;;;;11.27;8.30;;;6.30;96.70;;;;;;4949598;28;20311;-85
2022/01/21 09:25:08;;;;;;;12.85;8.65;;;6.30;96.70;;;;;;4962817;28;20532;-86
2022/01/21 09:27:36;;;;;;;12.73;8.40;;;6.40;96.70;;;;;;4963651;28;20050;-88
2022/01/21 09:30:06;;;;;;;13.32;9.02;;;6.50;96.70;;;;;;4965069;28;20058;-88
2022/01/21 09:32:35;;;;;;;15.30;9.90;;;6.70;96.70;;;;;;4961366;28;20051;-88
2022/01/21 09:35:05;;;;;;;16.88;11.23;;;6.90;96.70;;;;;;4942027;28;20134;-88
2022/01/21 09:37:36;;;;;;;14.93;10.38;;;7.00;96.70;;;;;;4959827;28;20046;-87
2022/01/21 09:40:06;;;;;;;15.73;9.65;;;7.20;96.70;;;;;;4962557;28;20432;-89
2022/01/21 09:42:36;;;;;;;13.25;9.30;;;7.20;96.70;;;;;;4944953;28;20098;-88
2022/01/21 09:45:09;;;;;;;12.68;8.98;;;7.30;96.70;;;;;;4960133;28;20682;-87
2022/01/21 09:47:45;;;;;;;11.90;8.90;;;7.40;96.70;;;;;;4962243;28;20512;-87
2022/01/21 09:50:16;;;;;;;12.23;8.98;;;7.50;96.70;;;;;;4960644;28;20043;-88
2022/01/21 09:52:47;;;;;;;18.10;11.77;;;7.60;96.70;;;;;;4948567;28;20042;-86
2022/01/21 09:55:20;;;;;;;14.73;10.50;;;7.70;96.70;;;;;;4941946;28;20074;-88
2022/01/21 09:57:49;;;;;;;18.52;12.10;;;7.80;96.70;;;;;;4961344;28;20047;-89
2022/01/21 10:00:20;;;;;;;24.67;13.68;;;7.80;96.70;;;;;;4963630;28;20058;-89
2022/01/21 10:02:50;;;;;;;22.48;13.13;;;7.80;96.70;;;;;;4958244;28;20062;-89
2022/01/21 10:05:19;;;;;;;21.45;12.82;;;7.90;96.70;;;;;;4959502;28;20156;-90
2022/01/21 10:07:50;;;;;;;18.33;12.38;;;8.00;96.70;;;;;;4957879;28;20386;-90
2022/01/21 10:10:18;;;;;;;18.05;12.35;;;8.20;96.70;;;;;;4957918;28;20046;-86
2022/01/21 10:12:50;;;;;;;19.48;13.25;;;8.40;96.70;;;;;;4941556;28;20547;-90
2022/01/21 10:15:18;;;;;;;18.30;12.73;;;8.50;96.70;;;;;;4959151;28;20043;-89
2022/01/21 10:18:00;;;;;;;19.45;12.90;;;8.60;96.70;;;;;;4958834;28;20050;-86
2022/01/21 10:20:55;;;;;;;27.10;16.23;;;8.70;96.70;;;;;;4945784;28;20051;-86
2022/01/21 10:23:25;;;;;;;24.50;15.20;;;8.90;96.70;;;;;;4972462;28;20520;-88
2022/01/21 10:26:00;;;;;;;26.55;15.55;;;8.90;96.70;;;;;;4953716;28;20670;-86
2022/01/21 10:28:30;;;;;;;25.20;17.00;;;9.10;96.70;;;;;;4960524;28;20051;-86
2022/01/21 10:31:10;;;;;;;24.90;16.15;;;9.20;96.70;;;;;;4957698;28;20049;-88
2022/01/21 10:33:44;;;;;;;30.50;17.52;;;9.30;96.70;;;;;;4945144;28;20080;-89
2022/01/21 10:36:21;;;;;;;29.63;16.48;;;9.40;96.70;;;;;;4955270;28;20041;-88
2022/01/21 10:38:51;;;;;;;;;;;9.40;96.70;;;;;;4954541;28;20042;-88
2022/01/21 10:41:21;;;;;;;23.15;15.27;;;9.60;96.70;;;;;;4958438;28;19926;-86
2022/01/21 10:44:05;;;;;;;28.27;17.10;;;9.60;96.70;;;;;;4959504;28;20054;-84
2022/01/21 10:46:34;;;;;;;24.77;15.73;;;9.50;96.70;;;;;;4966198;28;20043;-87
2022/01/21 10:49:05;;;;;;;28.98;18.33;;;9.60;96.70;;;;;;4961373;28;20162;-85
2022/01/21 10:51:35;;;;;;;30.25;16.83;;;9.50;96.70;;;;;;4946136;28;20047;-86
2022/01/21 10:54:18;;;;;;;22.42;15.63;;;9.50;96.70;;;;;;4961628;28;20153;-86
2022/01/21 10:57:07;;;;;;;24.33;15.90;;;9.60;96.70;;;;;;4948369;28;20055;-87
2022/01/21 10:59:54;;;;;;;23.90;15.65;;;9.70;96.70;;;;;;4937180;28;20145;-85
2022/01/21 11:02:32;;;;;;;20.52;13.70;;;9.70;96.70;;;;;;4961950;28;20042;-84
2022/01/21 11:05:04;;;;;;;21.35;13.98;;;9.80;96.70;;;;;;4962906;28;20109;-86
2022/01/21 11:07:47;;;;;;;20.77;13.10;;;9.90;96.70;;;;;;4940436;28;20043;-86
2022/01/21 11:10:39;;;;;;;18.58;11.57;;;9.90;96.70;;;;;;4960315;28;20059;-83
2022/01/21 11:13:26;;;;;;;19.33;10.93;;;9.90;96.70;;;;;;4941707;28;20047;-83
2022/01/21 11:15:57;;;;;;;17.98;10.63;;;9.90;96.70;;;;;;4957552;28;20043;-85
2022/01/21 11:19:14;;;;;;;18.65;11.40;;;10.00;96.70;;;;;;4958099;28;20077;-88
2022/01/21 11:21:48;;;;;;;16.45;9.75;;;10.00;96.70;;;;;;4951128;28;20102;-86
2022/01/21 11:24:18;;;;;;;20.17;12.35;;;10.20;96.70;;;;;;4960851;28;20039;-87
2022/01/21 11:29:42;;;;;;;11.38;7.78;;;10.30;96.70;;;;;;5117511;27;20426;-86
2022/01/21 11:32:11;;;;;;;15.73;9.88;;;10.60;96.70;;;;;;5094425;28;20478;-87
2022/01/21 11:34:42;;;;;;;17.38;10.32;;;10.60;96.70;;;;;;5098534;28;20075;-84
2022/01/21 11:37:10;;;;;;;15.50;10.07;;;10.70;96.70;;;;;;5094588;28;20036;-87
2022/01/21 11:39:39;;;;;;;15.82;9.88;;;10.80;96.70;;;;;;5102754;28;20048;-84
2022/01/21 11:42:08;;;;;;;16.35;10.02;;;10.90;96.70;;;;;;5098033;28;20047;-85
2022/01/21 11:44:39;;;;;;;15.30;10.05;;;11.10;96.70;;;;;;5100321;27;20048;-84
2022/01/21 11:47:15;;;;;;;16.30;10.38;;;11.20;96.70;;;;;;5076797;28;20040;-85
2022/01/21 11:49:54;;;;;;;16.52;9.93;;;11.30;96.70;;;;;;5093096;28;20069;-83
2022/01/21 11:52:22;;;;;;;13.98;9.38;;;11.30;96.70;;;;;;5093755;28;20328;-85
2022/01/21 11:54:51;;;;;;;14.38;9.70;;;11.30;96.70;;;;;;5087917;28;20515;-84
2022/01/21 11:57:30;;;;;;;15.75;9.50;;;11.40;96.70;;;;;;5091418;28;20039;-85
2022/01/21 12:00:06;;;;;;;13.93;9.60;;;11.40;96.70;;;;;;5094550;28;20094;-85
2022/01/21 12:02:36;;;;;;;13.07;8.77;;;11.50;96.70;;;;;;5098976;28;20311;-85
2022/01/21 12:05:06;;;;;;;15.30;9.73;;;11.60;96.70;;;;;;5097874;28;20076;-84
2022/01/21 12:07:48;;;;;;;14.75;9.38;;;11.60;96.70;;;;;;5105224;28;20047;-85
2022/01/21 12:10:36;;;;;;;14.02;9.23;;;11.60;96.70;;;;;;5089610;28;20124;-85
2022/01/21 12:13:12;;;;;;;13.90;8.63;;;11.70;96.70;;;;;;5096126;28;20039;-85
2022/01/21 12:19:17;;;;;;;13.45;8.90;;;11.80;96.70;;;;;;5093763;28;20055;-85
2022/01/21 12:21:46;;;;;;;14.23;9.02;;;11.80;96.70;;;;;;5098622;28;20122;-81
2022/01/21 12:24:16;;;;;;;11.52;8.10;;;11.90;96.70;;;;;;5098978;28;20032;-87
2022/01/21 12:27:00;;;;;;;12.32;8.18;;;11.90;96.70;;;;;;5077736;28;20039;-87
2022/01/21 12:29:29;;;;;;;13.07;8.38;;;12.00;96.70;;;;;;5100729;28;20824;-86
2022/01/21 12:32:03;;;;;;;13.55;9.00;;;12.10;96.70;;;;;;5096072;28;20401;-86
2022/01/21 12:35:08;;;;;;;13.68;9.48;;;12.10;96.70;;;;;;5094460;28;20584;-87
2022/01/21 12:38:03;;;;;;;14.90;9.20;;;12.20;96.70;;;;;;5094889;28;20059;-86
2022/01/21 12:40:33;;;;;;;13.18;8.23;;;12.20;96.70;;;;;;5086719;28;20050;-85
2022/01/21 12:43:34;;;;;;;17.52;9.82;;;12.30;96.70;;;;;;5073827;28;20494;-88
2022/01/21 12:46:04;;;;;;;13.65;9.02;;;12.30;96.70;;;;;;5092643;28;20140;-86
2022/01/21 12:48:36;;;;;;;14.18;8.52;;;12.40;96.70;;;;;;5060950;28;20139;-87
2022/01/21 12:56:57;;;;;;;13.50;9.35;;;12.70;96.70;;;;;;5088387;28;20072;-87
2022/01/21 12:59:28;;;;;;;15.07;9.98;;;12.70;96.70;;;;;;5083566;28;20036;-87
2022/01/21 13:01:58;;;;;;;13.63;10.02;;;12.60;96.70;;;;;;5068804;28;20040;-86
2022/01/21 13:04:41;;;;;;;16.27;10.20;;;12.70;96.70;;;;;;5084816;28;20040;-86
2022/01/21 13:07:13;;;;;;;16.92;11.30;;;12.80;96.70;;;;;;5075309;28;20121;-87
2022/01/21 13:10:09;;;;;;;16.65;10.30;;;12.80;96.70;;;;;;5086184;28;20122;-86
2022/01/21 13:12:47;;;;;;;16.13;10.55;;;12.80;96.70;;;;;;5076188;28;20500;-86
2022/01/21 13:15:15;;;;;;;15.52;9.45;;;12.70;96.70;;;;;;5087223;28;20044;-86
2022/01/21 13:17:43;;;;;;;14.63;9.73;;;12.80;96.70;;;;;;5065313;28;20042;-85
2022/01/21 13:20:11;;;;;;;17.08;10.98;;;12.80;96.70;;;;;;5088774;28;20110;-86
2022/01/21 13:22:41;;;;;;;14.18;10.02;;;12.80;96.70;;;;;;5084232;28;20036;-87
2022/01/21 13:25:17;;;;;;;15.77;10.18;;;12.80;96.70;;;;;;5060271;28;20047;-86
2022/01/21 13:27:47;;;;;;;15.57;10.40;;;12.80;96.70;;;;;;5076028;28;20055;-87
2022/01/21 13:30:17;;;;;;;15.43;10.95;;;12.80;96.70;;;;;;5086408;28;20343;-86
2022/01/21 13:32:46;;;;;;;15.88;11.05;;;12.80;96.70;;;;;;5077784;28;20073;-85
2022/01/21 13:35:17;;;;;;;18.92;11.32;;;12.80;96.70;;;;;;5085898;28;20044;-85
2022/01/21 13:38:01;;;;;;;16.77;11.43;;;12.80;96.70;;;;;;5080043;28;20131;-86
2022/01/21 13:40:34;;;;;;;16.63;11.18;;;12.80;96.70;;;;;;5073670;28;20402;-86
2022/01/21 13:43:08;;;;;;;17.15;12.18;;;12.80;96.70;;;;;;5079464;28;20036;-87
2022/01/21 13:45:36;;;;;;;17.00;11.18;;;12.80;96.70;;;;;;5085170;28;20037;-84
2022/01/21 13:48:06;;;;;;;15.10;10.95;;;12.70;96.70;;;;;;5086166;28;20086;-87
2022/01/21 13:50:35;;;;;;;18.17;12.07;;;12.70;96.70;;;;;;5078456;28;20050;-87
2022/01/21 13:53:05;;;;;;;19.77;13.15;;;12.70;96.70;;;;;;5071012;28;20571;-87
2022/01/21 13:55:43;;;;;;;19.67;12.43;;;12.70;96.70;;;;;;5074491;28;20040;-84
2022/01/21 13:58:12;;;;;;;17.65;11.68;;;12.70;96.70;;;;;;5075619;28;20048;-85
2022/01/21 14:00:42;;;;;;;20.00;12.70;;;12.60;96.70;;;;;;5082563;28;20041;-86
2022/01/21 14:03:15;;;;;;;19.27;12.43;;;12.40;96.70;;;;;;5080247;28;20032;-86
2022/01/21 14:05:50;;;;;;;21.73;12.95;;;12.20;96.70;;;;;;5056511;28;20576;-87
2022/01/21 14:08:24;;;;;;;19.60;12.82;;;12.10;96.70;;;;;;5088141;28;20500;-86
2022/01/21 14:11:04;;;;;;;21.33;12.82;;;11.90;96.70;;;;;;5079591;28;20060;-86